Time;durP1;ratioP1;P1;durP2;ratioP2;P2;SDS_P1;SDS_P2;PMS_P1;PMS_P2;Temp;Humidity;BMP_temperature;BMP_pressure;BME280_temperature;BME280_humidity;BME280_pressure;Samples;Min_cycle;Max_cycle;Signal;HPM_P1;HPM_P2
2022/02/26 00:01:43;;;;;;;7.72;2.30;;;13.40;59.10;;;;;;4848561;29;20064;-76
2022/02/26 00:04:10;;;;;;;9.40;1.95;;;13.40;59.30;;;;;;4864693;29;20049;-76
2022/02/26 00:06:36;;;;;;;6.78;1.67;;;13.40;59.20;;;;;;4864122;29;20076;-76
2022/02/26 00:09:05;;;;;;;9.70;2.40;;;13.40;59.10;;;;;;4865245;29;20053;-77
2022/02/26 00:11:33;;;;;;;8.98;2.03;;;13.40;58.90;;;;;;4864441;29;20053;-77
2022/02/26 00:14:01;;;;;;;7.00;2.03;;;13.40;58.40;;;;;;4863717;29;20348;-76
2022/02/26 00:16:27;;;;;;;14.25;2.45;;;13.30;58.10;;;;;;4861263;29;20088;-77
2022/02/26 00:18:53;;;;;;;6.60;2.05;;;13.20;58.30;;;;;;4858173;29;20148;-77
2022/02/26 00:21:19;;;;;;;12.07;2.50;;;13.30;58.90;;;;;;4861674;29;20085;-77
2022/02/26 00:23:45;;;;;;;10.30;2.22;;;13.20;58.60;;;;;;4863583;29;20154;-77
2022/02/26 00:26:12;;;;;;;12.27;2.70;;;13.20;58.40;;;;;;4863536;29;20049;-76
2022/02/26 00:28:37;;;;;;;7.82;2.17;;;13.30;58.90;;;;;;4847961;29;20064;-76
2022/02/26 00:31:03;;;;;;;8.30;1.60;;;13.30;58.70;;;;;;4863886;29;20050;-76
2022/02/26 00:33:29;;;;;;;8.90;2.00;;;13.30;57.90;;;;;;4858469;29;20038;-77
2022/02/26 00:35:59;;;;;;;12.32;1.77;;;13.20;57.70;;;;;;4864300;29;20060;-78
2022/02/26 00:38:26;;;;;;;10.95;2.30;;;13.20;57.90;;;;;;4864545;29;20061;-75
2022/02/26 00:40:52;;;;;;;10.90;2.28;;;13.20;58.10;;;;;;4863150;29;20068;-76
2022/02/26 00:43:19;;;;;;;12.27;2.25;;;13.20;57.80;;;;;;4863798;29;20523;-77
2022/02/26 00:45:44;;;;;;;8.15;1.95;;;13.20;58.00;;;;;;4863629;29;20113;-78
2022/02/26 00:48:10;;;;;;;13.75;2.03;;;13.30;58.30;;;;;;4864360;29;20046;-77
2022/02/26 00:50:36;;;;;;;9.63;2.20;;;13.30;58.30;;;;;;4864287;29;20060;-77
2022/02/26 00:53:02;;;;;;;10.68;2.83;;;13.20;57.90;;;;;;4847516;29;20382;-76
2022/02/26 00:55:28;;;;;;;11.52;2.00;;;13.20;57.70;;;;;;4863915;29;20046;-78
2022/02/26 00:57:54;;;;;;;11.82;1.85;;;13.20;57.50;;;;;;4862448;29;20493;-78
2022/02/26 01:00:19;;;;;;;8.75;2.38;;;13.20;57.50;;;;;;4847574;29;20140;-78
2022/02/26 01:02:46;;;;;;;11.18;1.65;;;13.10;57.60;;;;;;4863886;29;20045;-76
2022/02/26 01:05:12;;;;;;;9.13;2.33;;;13.10;57.40;;;;;;4863742;29;20354;-77
2022/02/26 01:07:38;;;;;;;9.20;1.73;;;13.10;57.70;;;;;;4863651;29;20149;-76
2022/02/26 01:10:05;;;;;;;12.18;1.92;;;13.10;57.70;;;;;;4862641;29;20081;-77
2022/02/26 01:12:31;;;;;;;8.80;2.25;;;13.10;57.90;;;;;;4863490;29;20049;-76
2022/02/26 01:14:57;;;;;;;9.13;1.80;;;13.20;58.40;;;;;;4863351;29;20041;-77
2022/02/26 01:17:23;;;;;;;7.68;1.63;;;13.20;58.40;;;;;;4863143;29;20524;-76
2022/02/26 01:19:49;;;;;;;5.60;1.73;;;13.20;58.50;;;;;;4863321;29;20069;-77
2022/02/26 01:22:15;;;;;;;8.15;1.45;;;13.20;58.30;;;;;;4863523;29;20053;-77
2022/02/26 01:24:40;;;;;;;9.52;2.28;;;13.30;58.30;;;;;;4862558;29;20053;-76
2022/02/26 01:27:06;;;;;;;7.85;1.80;;;13.30;58.30;;;;;;4862909;29;20060;-76
2022/02/26 01:29:33;;;;;;;6.95;2.25;;;13.30;58.30;;;;;;4862785;29;20113;-77
2022/02/26 01:31:59;;;;;;;9.15;1.95;;;13.30;58.30;;;;;;4862292;29;20064;-77
2022/02/26 01:34:24;;;;;;;6.30;1.45;;;13.40;58.20;;;;;;4862649;29;20439;-78
2022/02/26 01:36:50;;;;;;;8.25;1.88;;;13.30;58.10;;;;;;4862816;29;20057;-77
2022/02/26 01:39:23;;;;;;;7.82;2.28;;;13.40;58.10;;;;;;4863212;29;20057;-77
2022/02/26 01:41:49;;;;;;;8.45;1.80;;;13.40;58.00;;;;;;4863409;29;20064;-76
2022/02/26 01:44:14;;;;;;;9.57;2.10;;;13.40;57.80;;;;;;4862932;29;20159;-77
2022/02/26 01:46:40;;;;;;;8.98;1.95;;;13.30;57.70;;;;;;4861867;29;20053;-79
2022/02/26 01:49:06;;;;;;;6.88;1.40;;;13.40;57.80;;;;;;4861861;29;20466;-78
2022/02/26 01:51:32;;;;;;;7.78;1.63;;;13.40;57.70;;;;;;4862728;29;20055;-78
2022/02/26 01:53:58;;;;;;;7.78;1.75;;;13.40;58.20;;;;;;4862295;29;20053;-77
2022/02/26 01:56:24;;;;;;;6.72;2.25;;;13.40;57.60;;;;;;4862709;29;20158;-76
2022/02/26 01:58:51;;;;;;;6.68;1.60;;;13.40;57.50;;;;;;4862731;29;20081;-77
2022/02/26 02:01:17;;;;;;;7.47;1.60;;;13.40;57.50;;;;;;4862511;29;20471;-78
2022/02/26 02:03:42;;;;;;;5.47;1.63;;;13.40;57.50;;;;;;4862212;29;20046;-77
2022/02/26 02:06:10;;;;;;;8.85;1.60;;;13.30;57.40;;;;;;4862553;29;20502;-77
2022/02/26 02:08:35;;;;;;;6.60;1.35;;;13.30;57.70;;;;;;4862677;29;20053;-77
2022/02/26 02:11:01;;;;;;;7.35;1.83;;;13.30;57.80;;;;;;4861522;29;20056;-76
2022/02/26 02:13:27;;;;;;;10.07;2.53;;;13.30;57.70;;;;;;4862526;29;20077;-77
2022/02/26 02:15:56;;;;;;;7.10;1.52;;;13.20;57.70;;;;;;4862979;29;20110;-77
2022/02/26 02:18:22;;;;;;;5.68;1.40;;;13.20;57.70;;;;;;4862388;29;20147;-76
2022/02/26 02:20:48;;;;;;;7.82;1.80;;;13.30;57.50;;;;;;4862151;29;20057;-76
2022/02/26 02:23:14;;;;;;;7.82;1.50;;;13.20;57.50;;;;;;4862485;29;20049;-77
2022/02/26 02:25:40;;;;;;;4.68;1.75;;;13.30;57.50;;;;;;4862495;29;20075;-76
2022/02/26 02:28:07;;;;;;;6.32;1.63;;;13.30;57.40;;;;;;4862773;29;20064;-77
2022/02/26 02:30:33;;;;;;;8.00;1.60;;;13.20;57.30;;;;;;4862685;29;20077;-78
2022/02/26 02:32:59;;;;;;;6.93;1.67;;;13.20;57.20;;;;;;4861904;29;20108;-77
2022/02/26 02:35:28;;;;;;;4.28;1.38;;;13.30;57.20;;;;;;4862334;29;20079;-77
2022/02/26 02:37:54;;;;;;;9.60;2.50;;;13.30;57.00;;;;;;4862255;29;20049;-78
2022/02/26 02:40:21;;;;;;;9.10;2.08;;;13.30;57.10;;;;;;4862460;29;20041;-77
2022/02/26 02:42:47;;;;;;;9.48;2.10;;;13.20;57.50;;;;;;4862415;29;20045;-77
2022/02/26 02:45:13;;;;;;;10.77;2.30;;;13.30;57.00;;;;;;4862631;29;20126;-76
2022/02/26 02:47:39;;;;;;;6.68;1.75;;;13.20;57.10;;;;;;4866331;29;20136;-76
2022/02/26 02:50:05;;;;;;;6.82;1.60;;;13.20;57.20;;;;;;4865729;29;20069;-76
2022/02/26 02:52:31;;;;;;;6.72;1.73;;;13.20;57.20;;;;;;4866166;29;20061;-76
2022/02/26 02:54:56;;;;;;;9.35;2.17;;;13.20;57.20;;;;;;4865329;29;20090;-78
2022/02/26 02:57:22;;;;;;;8.35;1.83;;;13.20;57.10;;;;;;4865786;29;20045;-77
2022/02/26 02:59:48;;;;;;;6.20;1.80;;;13.20;56.90;;;;;;4865708;29;20046;-76
2022/02/26 03:02:14;;;;;;;8.32;1.88;;;13.20;56.90;;;;;;4865022;29;20053;-78
2022/02/26 03:04:39;;;;;;;5.63;1.40;;;13.20;56.90;;;;;;4865709;29;20053;-77
2022/02/26 03:07:05;;;;;;;9.82;2.40;;;13.20;56.80;;;;;;4865717;29;20061;-78
2022/02/26 03:09:31;;;;;;;4.82;1.20;;;13.20;56.70;;;;;;4865914;29;20097;-76
2022/02/26 03:11:56;;;;;;;8.85;1.88;;;13.20;56.60;;;;;;4864638;29;20136;-76
2022/02/26 03:14:22;;;;;;;5.63;1.50;;;13.20;56.70;;;;;;4865115;29;20045;-77
2022/02/26 03:16:48;;;;;;;8.63;1.90;;;13.20;56.70;;;;;;4865604;29;20371;-77
2022/02/26 03:19:13;;;;;;;9.45;2.22;;;13.20;56.70;;;;;;4865320;29;20056;-77
2022/02/26 03:21:42;;;;;;;11.70;1.70;;;13.10;56.50;;;;;;4865022;29;20379;-78
2022/02/26 03:24:12;;;;;;;10.70;1.80;;;13.10;56.60;;;;;;4865970;29;20377;-77
2022/02/26 03:26:39;;;;;;;9.13;1.95;;;13.10;56.60;;;;;;4865630;29;20132;-76
2022/02/26 03:29:07;;;;;;;7.65;1.88;;;13.10;56.50;;;;;;4865432;29;20103;-77
2022/02/26 03:31:33;;;;;;;7.93;2.00;;;13.10;56.40;;;;;;4864728;29;20436;-76
2022/02/26 03:33:59;;;;;;;7.90;1.88;;;13.10;56.40;;;;;;4863928;29;20113;-76
2022/02/26 03:36:27;;;;;;;6.70;2.13;;;13.10;56.40;;;;;;4865385;29;20049;-75
2022/02/26 03:38:53;;;;;;;7.93;1.85;;;13.10;56.40;;;;;;4865193;29;20064;-76
2022/02/26 03:41:19;;;;;;;9.57;2.00;;;13.10;56.30;;;;;;4865157;29;20076;-78
2022/02/26 03:43:46;;;;;;;7.63;1.90;;;13.10;56.30;;;;;;4865181;29;20053;-75
2022/02/26 03:46:12;;;;;;;8.65;2.13;;;13.10;56.30;;;;;;4863940;29;20063;-76
2022/02/26 03:48:38;;;;;;;10.75;2.05;;;13.10;56.30;;;;;;4864925;29;20483;-76
2022/02/26 03:51:05;;;;;;;4.03;1.40;;;13.00;56.20;;;;;;4864862;29;20053;-76
2022/02/26 03:53:32;;;;;;;9.10;2.60;;;13.00;56.30;;;;;;4865039;29;20057;-77
2022/02/26 03:55:59;;;;;;;8.63;1.45;;;13.00;56.30;;;;;;4864992;29;20069;-76
2022/02/26 03:58:25;;;;;;;6.53;1.35;;;13.00;56.40;;;;;;4864496;29;20172;-77
2022/02/26 04:00:51;;;;;;;5.38;1.95;;;13.00;56.50;;;;;;4865064;29;20181;-76
2022/02/26 04:03:16;;;;;;;8.35;1.80;;;12.90;56.40;;;;;;4864283;29;20352;-77
2022/02/26 04:05:42;;;;;;;6.25;1.63;;;12.90;56.50;;;;;;4864645;29;20073;-78
2022/02/26 04:08:08;;;;;;;6.43;2.17;;;12.90;56.40;;;;;;4863769;29;20046;-77
2022/02/26 04:10:34;;;;;;;9.75;1.67;;;12.80;56.50;;;;;;4864810;29;20057;-76
2022/02/26 04:13:00;;;;;;;4.38;1.67;;;12.80;56.60;;;;;;4865335;29;20451;-76
2022/02/26 04:15:25;;;;;;;7.07;1.65;;;12.70;56.60;;;;;;4864583;29;20061;-78
2022/02/26 04:17:51;;;;;;;7.82;1.77;;;12.70;56.80;;;;;;4864861;29;20133;-77
2022/02/26 04:20:17;;;;;;;6.85;1.90;;;12.60;56.90;;;;;;4863525;29;20057;-76
2022/02/26 04:22:42;;;;;;;6.75;1.73;;;12.60;57.00;;;;;;4864191;29;20475;-76
2022/02/26 04:25:09;;;;;;;6.13;1.73;;;12.60;56.90;;;;;;4863518;29;20049;-76
2022/02/26 04:27:35;;;;;;;8.30;1.90;;;12.60;56.80;;;;;;4864247;29;20060;-77
2022/02/26 04:30:01;;;;;;;8.07;1.83;;;12.60;56.80;;;;;;4863855;29;20049;-77
2022/02/26 04:32:27;;;;;;;7.05;1.55;;;12.70;56.80;;;;;;4864447;29;20064;-76
2022/02/26 04:34:53;;;;;;;7.85;1.95;;;12.70;56.60;;;;;;4864557;29;20046;-77
2022/02/26 04:37:20;;;;;;;7.00;2.17;;;12.60;56.50;;;;;;4864221;29;20037;-76
2022/02/26 04:39:47;;;;;;;8.43;1.90;;;12.60;56.50;;;;;;4864579;29;20202;-76
2022/02/26 04:42:13;;;;;;;6.43;1.80;;;12.60;56.50;;;;;;4864364;29;20386;-78
2022/02/26 04:44:38;;;;;;;9.98;1.88;;;12.60;56.50;;;;;;4864120;29;20128;-78
2022/02/26 04:47:04;;;;;;;7.25;1.80;;;12.60;56.50;;;;;;4864036;29;20046;-75
2022/02/26 04:49:30;;;;;;;7.75;1.67;;;12.70;56.60;;;;;;4863010;29;20064;-76
2022/02/26 04:51:56;;;;;;;8.38;1.70;;;12.60;56.50;;;;;;4864142;29;20053;-76
2022/02/26 04:54:21;;;;;;;10.02;1.90;;;12.60;56.50;;;;;;4863480;29;20049;-76
2022/02/26 04:56:47;;;;;;;7.53;2.22;;;12.70;56.60;;;;;;4863255;29;20081;-77
2022/02/26 04:59:13;;;;;;;8.38;1.52;;;12.70;56.60;;;;;;4863636;29;20344;-77
2022/02/26 05:01:39;;;;;;;8.20;1.80;;;12.60;56.50;;;;;;4863845;29;20451;-77
2022/02/26 05:04:04;;;;;;;12.25;2.33;;;12.70;56.60;;;;;;4863562;29;20137;-76
2022/02/26 05:06:30;;;;;;;9.43;2.15;;;12.60;56.50;;;;;;4862807;29;20060;-78
2022/02/26 05:08:56;;;;;;;6.07;1.92;;;12.60;56.40;;;;;;4862655;29;20060;-77
2022/02/26 05:11:21;;;;;;;8.38;2.15;;;12.60;56.50;;;;;;4863628;29;20084;-76
2022/02/26 05:13:47;;;;;;;10.32;1.73;;;12.60;56.50;;;;;;4863955;29;20049;-77
2022/02/26 05:16:13;;;;;;;7.38;1.95;;;12.60;56.60;;;;;;4862526;29;20061;-77
2022/02/26 05:18:39;;;;;;;6.35;1.45;;;12.60;56.50;;;;;;4862594;29;20478;-75
2022/02/26 05:21:05;;;;;;;7.97;1.88;;;12.60;56.50;;;;;;4862722;29;20053;-75
2022/02/26 05:23:30;;;;;;;6.82;1.15;;;12.60;56.60;;;;;;4862324;29;20463;-75
2022/02/26 05:25:56;;;;;;;7.78;1.92;;;12.60;56.60;;;;;;4863131;29;20053;-77
2022/02/26 05:28:22;;;;;;;3.78;1.42;;;12.60;56.50;;;;;;4862708;29;20443;-77
2022/02/26 05:30:47;;;;;;;7.53;1.83;;;12.60;56.60;;;;;;4863718;29;20057;-76
2022/02/26 05:33:13;;;;;;;8.07;2.47;;;12.60;56.50;;;;;;4863485;29;20149;-76
2022/02/26 05:35:39;;;;;;;5.70;1.50;;;12.60;56.60;;;;;;4862828;29;20345;-75
2022/02/26 05:38:04;;;;;;;7.50;2.05;;;12.60;56.50;;;;;;4862908;29;20053;-77
2022/02/26 05:40:30;;;;;;;7.05;2.22;;;12.60;56.50;;;;;;4862702;29;20102;-76
2022/02/26 05:42:56;;;;;;;10.35;1.88;;;12.60;56.50;;;;;;4862706;29;20049;-76
2022/02/26 05:45:22;;;;;;;9.55;1.63;;;12.60;56.50;;;;;;4861843;29;20368;-75
2022/02/26 05:47:47;;;;;;;9.70;1.65;;;12.60;56.30;;;;;;4861830;29;20053;-75
2022/02/26 05:50:13;;;;;;;5.22;1.83;;;12.60;56.50;;;;;;4863423;29;20096;-80
2022/02/26 05:52:40;;;;;;;9.18;2.90;;;12.60;56.70;;;;;;4861938;29;20100;-80
2022/02/26 05:55:06;;;;;;;9.30;2.08;;;12.60;55.00;;;;;;4862132;29;20448;-82
2022/02/26 05:57:32;;;;;;;8.80;2.03;;;12.60;53.20;;;;;;4862149;29;20089;-83
2022/02/26 05:59:57;;;;;;;6.10;2.13;;;12.50;52.40;;;;;;4861618;29;20088;-82
2022/02/26 06:02:23;;;;;;;7.50;1.85;;;12.40;51.90;;;;;;4861532;29;20055;-81
2022/02/26 06:04:49;;;;;;;10.45;2.33;;;12.30;51.60;;;;;;4862022;29;20053;-77
2022/02/26 06:07:15;;;;;;;9.82;2.63;;;12.20;51.70;;;;;;4860783;29;20065;-76
2022/02/26 06:09:41;;;;;;;9.40;1.95;;;12.10;52.30;;;;;;4862688;29;20064;-77
2022/02/26 06:12:08;;;;;;;8.25;1.58;;;12.10;53.00;;;;;;4862447;29;20049;-75
2022/02/26 06:14:34;;;;;;;9.60;1.70;;;12.10;53.40;;;;;;4862962;29;20057;-75
2022/02/26 06:16:59;;;;;;;7.22;1.52;;;12.20;53.60;;;;;;4862340;29;20388;-75
2022/02/26 06:19:25;;;;;;;8.43;1.70;;;12.40;53.80;;;;;;4862925;29;20049;-75
2022/02/26 06:21:51;;;;;;;6.55;2.10;;;12.60;54.00;;;;;;4862544;29;20053;-78
2022/02/26 06:24:17;;;;;;;5.55;1.60;;;12.90;54.20;;;;;;4862228;29;20041;-76
2022/02/26 06:26:43;;;;;;;9.38;1.90;;;13.20;54.20;;;;;;4862329;29;20085;-76
2022/02/26 06:29:09;;;;;;;7.03;1.55;;;13.40;54.00;;;;;;4862453;29;20081;-78
2022/02/26 06:31:35;;;;;;;7.03;1.60;;;13.70;54.00;;;;;;4862415;29;20088;-77
2022/02/26 06:34:01;;;;;;;6.95;1.88;;;13.90;53.90;;;;;;4862241;29;20060;-77
2022/02/26 06:36:26;;;;;;;5.75;1.35;;;14.10;53.80;;;;;;4861228;29;20053;-76
2022/02/26 06:38:52;;;;;;;5.53;1.52;;;14.30;53.80;;;;;;4861958;29;20136;-76
2022/02/26 06:41:18;;;;;;;7.00;1.67;;;14.40;53.80;;;;;;4862226;29;20045;-77
2022/02/26 06:43:44;;;;;;;6.68;1.73;;;14.50;53.70;;;;;;4862524;29;20524;-76
2022/02/26 06:46:11;;;;;;;6.43;1.90;;;14.60;53.60;;;;;;4862513;29;20065;-77
2022/02/26 06:48:37;;;;;;;5.68;1.35;;;14.70;53.50;;;;;;4863126;29;20394;-74
2022/02/26 06:51:03;;;;;;;7.93;1.58;;;14.80;53.70;;;;;;4862155;29;20202;-77
2022/02/26 06:53:28;;;;;;;9.57;1.77;;;14.90;53.70;;;;;;4861524;29;20116;-74
2022/02/26 06:55:54;;;;;;;9.60;1.67;;;14.90;53.80;;;;;;4861825;29;20375;-79
2022/02/26 06:58:20;;;;;;;5.38;1.45;;;15.00;53.80;;;;;;4862363;29;20048;-84
2022/02/26 07:00:45;;;;;;;5.55;1.88;;;15.10;53.90;;;;;;4861947;29;20469;-81
2022/02/26 07:03:12;;;;;;;9.85;2.08;;;15.20;53.80;;;;;;4861441;29;20045;-80
2022/02/26 07:05:37;;;;;;;6.63;1.52;;;15.20;53.70;;;;;;4874512;29;20140;-80
2022/02/26 07:08:03;;;;;;;9.77;1.48;;;15.30;53.80;;;;;;4880609;29;20156;-79
2022/02/26 07:10:29;;;;;;;8.73;1.92;;;15.40;53.90;;;;;;4872440;29;20062;-79
2022/02/26 07:12:55;;;;;;;8.15;1.45;;;15.50;53.90;;;;;;4861551;29;20060;-81
2022/02/26 07:15:20;;;;;;;7.88;1.35;;;15.50;53.80;;;;;;4861839;29;20462;-80
2022/02/26 07:17:46;;;;;;;6.75;1.40;;;15.60;53.90;;;;;;4861235;29;20136;-79
2022/02/26 07:20:12;;;;;;;6.82;1.88;;;15.60;53.80;;;;;;4861632;29;20114;-80
2022/02/26 07:22:38;;;;;;;5.82;1.67;;;15.70;53.80;;;;;;4858470;29;20081;-75
2022/02/26 07:25:06;;;;;;;6.10;1.63;;;15.70;53.80;;;;;;4861975;29;20368;-77
2022/02/26 07:27:32;;;;;;;6.30;1.73;;;15.80;53.90;;;;;;4870517;29;20045;-82
2022/02/26 07:29:57;;;;;;;5.63;1.20;;;15.80;53.80;;;;;;4864083;29;20068;-81
2022/02/26 07:32:23;;;;;;;5.85;1.67;;;15.80;53.90;;;;;;4881866;29;20049;-79
2022/02/26 07:34:49;;;;;;;5.53;1.42;;;15.90;54.00;;;;;;4873800;29;20045;-82
2022/02/26 07:37:15;;;;;;;6.97;1.98;;;15.90;54.00;;;;;;4846095;29;20065;-81
2022/02/26 07:39:40;;;;;;;7.38;1.58;;;16.00;54.00;;;;;;4846166;29;20136;-79
2022/02/26 07:42:07;;;;;;;7.20;1.63;;;16.10;54.00;;;;;;4847174;29;20054;-81
2022/02/26 07:44:33;;;;;;;6.63;1.85;;;16.10;54.00;;;;;;4831468;29;20420;-79
2022/02/26 07:47:00;;;;;;;5.88;1.60;;;16.20;53.90;;;;;;4848743;29;20045;-78
2022/02/26 07:49:25;;;;;;;7.30;2.05;;;16.20;53.70;;;;;;4863933;29;20045;-74
2022/02/26 07:51:51;;;;;;;7.03;2.05;;;16.20;53.80;;;;;;4864977;29;20056;-83
2022/02/26 07:54:17;;;;;;;6.50;1.85;;;16.30;53.80;;;;;;4877226;29;20455;-80
2022/02/26 07:56:43;;;;;;;6.18;1.70;;;16.30;53.80;;;;;;4881838;29;20056;-80
2022/02/26 07:59:09;;;;;;;11.50;2.05;;;15.80;53.60;;;;;;4847926;29;20203;-79
2022/02/26 08:01:35;;;;;;;5.57;1.80;;;16.10;54.20;;;;;;4864782;29;20065;-75
2022/02/26 08:04:00;;;;;;;6.47;1.98;;;16.20;54.40;;;;;;4863747;29;20387;-78
2022/02/26 08:06:26;;;;;;;4.65;1.60;;;16.30;54.30;;;;;;4864253;29;20161;-76
2022/02/26 08:08:52;;;;;;;7.85;1.73;;;16.40;54.30;;;;;;4864207;29;20062;-81
2022/02/26 08:11:18;;;;;;;7.78;1.63;;;16.40;54.30;;;;;;4864804;29;20064;-78
2022/02/26 08:13:44;;;;;;;9.70;1.90;;;16.50;54.50;;;;;;4864795;29;20045;-79
2022/02/26 08:16:09;;;;;;;6.35;1.80;;;16.50;54.40;;;;;;4864623;29;20041;-83
2022/02/26 08:18:35;;;;;;;9.50;2.25;;;16.50;54.40;;;;;;4848147;29;20070;-80
2022/02/26 08:21:02;;;;;;;10.43;2.63;;;16.50;54.60;;;;;;4865391;29;20060;-78
2022/02/26 08:23:34;;;;;;;8.18;1.90;;;15.60;56.10;;;;;;4864553;29;20088;-84
2022/02/26 08:26:00;;;;;;;7.43;2.05;;;16.10;56.80;;;;;;4863352;29;20041;-77
2022/02/26 08:28:26;;;;;;;6.82;1.80;;;16.20;56.50;;;;;;4864618;29;20037;-83
2022/02/26 08:30:51;;;;;;;11.07;2.20;;;16.20;56.30;;;;;;4863424;29;20052;-77
2022/02/26 08:33:17;;;;;;;8.27;2.05;;;16.20;57.60;;;;;;4864292;29;20042;-83
2022/02/26 08:35:45;;;;;;;10.23;2.22;;;16.30;57.00;;;;;;4832918;29;20451;-81
2022/02/26 08:38:11;;;;;;;6.35;2.15;;;16.40;56.90;;;;;;4863388;29;20526;-80
2022/02/26 08:40:37;;;;;;;10.48;1.73;;;16.50;57.70;;;;;;4863035;29;20132;-78
2022/02/26 08:43:02;;;;;;;9.70;2.25;;;16.50;58.20;;;;;;4846392;29;20535;-77
2022/02/26 08:45:28;;;;;;;11.68;2.13;;;16.60;56.40;;;;;;4857928;29;20038;-82
2022/02/26 08:47:54;;;;;;;9.60;2.33;;;16.60;56.30;;;;;;4861584;29;20114;-81
2022/02/26 08:50:21;;;;;;;12.27;2.78;;;16.50;55.50;;;;;;4862364;29;20049;-81
2022/02/26 08:52:47;;;;;;;6.53;1.73;;;16.60;55.20;;;;;;4857405;29;20053;-79
2022/02/26 08:55:13;;;;;;;8.13;2.50;;;16.30;55.50;;;;;;4855187;29;20050;-78
2022/02/26 08:57:38;;;;;;;5.40;1.95;;;16.40;55.50;;;;;;4856316;29;20045;-78
2022/02/26 09:00:06;;;;;;;9.05;2.08;;;16.50;55.20;;;;;;4863845;29;20098;-78
2022/02/26 09:02:32;;;;;;;8.65;2.30;;;16.60;55.00;;;;;;4862815;29;20064;-78
2022/02/26 09:04:57;;;;;;;6.63;2.00;;;16.80;54.70;;;;;;4864304;29;20049;-78
2022/02/26 09:07:23;;;;;;;8.70;2.00;;;16.90;54.50;;;;;;4864468;29;20371;-77
2022/02/26 09:09:51;;;;;;;6.97;2.03;;;17.00;54.30;;;;;;4861986;29;20126;-77
2022/02/26 09:12:17;;;;;;;7.85;2.00;;;16.80;54.70;;;;;;4864107;29;20363;-78
2022/02/26 09:14:43;;;;;;;6.97;1.75;;;16.80;54.90;;;;;;4862826;29;20227;-77
2022/02/26 09:17:09;;;;;;;8.48;2.15;;;16.90;55.30;;;;;;4863596;29;20133;-77
2022/02/26 09:19:36;;;;;;;6.20;1.98;;;16.90;55.10;;;;;;4862585;29;20132;-77
2022/02/26 09:22:05;;;;;;;10.73;2.40;;;17.00;54.10;;;;;;4863549;29;20060;-77
2022/02/26 09:24:34;;;;;;;12.98;4.25;;;17.00;51.90;;;;;;4863308;29;20067;-81
2022/02/26 09:27:00;;;;;;;9.95;2.42;;;16.90;50.70;;;;;;4862515;29;20049;-74
2022/02/26 09:29:26;;;;;;;15.90;3.03;;;16.70;51.60;;;;;;4863591;29;20060;-77
2022/02/26 09:31:52;;;;;;;11.23;2.80;;;16.60;51.30;;;;;;4864152;29;20344;-77
2022/02/26 09:34:22;;;;;;;11.05;2.58;;;16.60;51.20;;;;;;4860983;29;20068;-78
2022/02/26 09:36:50;;;;;;;11.32;2.45;;;16.60;51.10;;;;;;4847070;29;20045;-78
2022/02/26 09:39:17;;;;;;;10.77;2.28;;;16.70;51.00;;;;;;4863326;29;20371;-77
2022/02/26 09:41:46;;;;;;;10.95;2.22;;;16.70;50.50;;;;;;4863217;29;20110;-78
2022/02/26 09:44:12;;;;;;;10.30;2.58;;;16.70;50.40;;;;;;4863382;29;20057;-79
2022/02/26 09:46:39;;;;;;;10.13;2.50;;;16.70;50.70;;;;;;4862825;29;20049;-78
2022/02/26 09:49:05;;;;;;;8.15;2.00;;;16.60;51.50;;;;;;4863001;29;20139;-78
2022/02/26 09:51:32;;;;;;;9.43;2.13;;;16.60;52.00;;;;;;4862288;29;20093;-78
2022/02/26 09:53:58;;;;;;;11.95;2.60;;;16.50;52.50;;;;;;4862599;29;20054;-77
2022/02/26 09:56:24;;;;;;;4.72;1.50;;;16.50;53.20;;;;;;4863301;29;20415;-77
2022/02/26 09:58:50;;;;;;;8.93;1.73;;;16.40;53.60;;;;;;4863094;29;20396;-77
2022/02/26 10:01:16;;;;;;;7.65;1.92;;;16.40;54.10;;;;;;4862930;29;20479;-77
2022/02/26 10:03:42;;;;;;;8.93;2.08;;;16.40;54.60;;;;;;4862872;29;20061;-78
2022/02/26 10:06:14;;;;;;;7.47;1.95;;;16.30;55.00;;;;;;4862450;29;20133;-78
2022/02/26 10:08:49;;;;;;;7.60;2.25;;;16.30;55.30;;;;;;4863130;29;20371;-79
2022/02/26 10:11:33;;;;;;;9.02;1.80;;;16.30;55.60;;;;;;4863150;29;20430;-78
2022/02/26 10:14:13;;;;;;;6.68;2.13;;;16.30;56.00;;;;;;4862657;29;20060;-78
2022/02/26 10:16:52;;;;;;;8.63;2.08;;;16.20;56.10;;;;;;4862828;29;20045;-77
2022/02/26 10:19:29;;;;;;;4.90;1.38;;;16.20;56.40;;;;;;4862772;29;20046;-78
2022/02/26 10:22:05;;;;;;;7.03;2.20;;;16.20;56.60;;;;;;4862022;29;20054;-77
2022/02/26 10:24:32;;;;;;;4.93;1.75;;;16.20;56.80;;;;;;4861752;29;20179;-78
2022/02/26 10:27:03;;;;;;;6.03;1.55;;;16.20;56.80;;;;;;4862688;29;20408;-77
2022/02/26 10:29:29;;;;;;;7.85;1.75;;;16.10;56.90;;;;;;4862799;29;20132;-78
2022/02/26 10:31:58;;;;;;;9.32;2.17;;;16.10;56.90;;;;;;4861362;29;20057;-78
2022/02/26 10:34:38;;;;;;;9.60;1.92;;;16.10;57.20;;;;;;4862784;29;20340;-77
2022/02/26 10:37:08;;;;;;;6.50;1.50;;;16.10;57.30;;;;;;4862540;29;20371;-77
2022/02/26 10:39:39;;;;;;;5.07;1.80;;;16.00;57.20;;;;;;4862585;29;20379;-78
2022/02/26 10:42:07;;;;;;;6.95;1.75;;;16.00;57.20;;;;;;4862799;29;20206;-77
2022/02/26 10:44:33;;;;;;;7.28;2.05;;;16.00;57.20;;;;;;4862581;29;20387;-77
2022/02/26 10:47:12;;;;;;;6.05;1.52;;;16.00;57.10;;;;;;4861566;29;20054;-79
2022/02/26 10:49:47;;;;;;;6.47;1.48;;;16.00;57.30;;;;;;4861519;29;20132;-78
2022/02/26 10:52:15;;;;;;;5.18;1.40;;;16.00;57.10;;;;;;4861874;29;20052;-78
2022/02/26 10:54:42;;;;;;;7.57;1.95;;;16.00;57.00;;;;;;4861552;29;20102;-76
2022/02/26 10:57:10;;;;;;;6.00;1.33;;;16.00;56.70;;;;;;4862401;29;20536;-78
2022/02/26 10:59:41;;;;;;;5.38;1.45;;;16.00;56.60;;;;;;4861753;29;20072;-79
2022/02/26 11:02:22;;;;;;;5.72;1.58;;;16.00;56.30;;;;;;4861688;29;20046;-79
2022/02/26 11:04:49;;;;;;;10.88;2.05;;;16.00;56.40;;;;;;4846352;29;20060;-79
2022/02/26 11:07:15;;;;;;;5.10;1.13;;;15.90;56.40;;;;;;4863613;29;20341;-78
2022/02/26 11:09:43;;;;;;;4.22;1.10;;;15.90;56.90;;;;;;4866213;29;20131;-78
2022/02/26 11:12:13;;;;;;;6.47;1.63;;;15.90;56.10;;;;;;4865847;29;20145;-78
2022/02/26 11:14:44;;;;;;;4.57;1.52;;;15.90;56.10;;;;;;4865820;29;20124;-78
2022/02/26 11:17:12;;;;;;;5.38;1.60;;;15.90;56.10;;;;;;4866373;29;20069;-79
2022/02/26 11:19:39;;;;;;;4.65;1.20;;;15.80;56.10;;;;;;4865355;29;20058;-77
2022/02/26 11:22:05;;;;;;;8.15;1.77;;;15.90;56.30;;;;;;4866118;29;20421;-77
2022/02/26 11:24:32;;;;;;;4.70;1.20;;;15.90;56.30;;;;;;4865562;29;20049;-77
2022/02/26 11:26:58;;;;;;;4.90;1.38;;;15.80;56.10;;;;;;4865278;29;20140;-77
2022/02/26 11:29:25;;;;;;;5.40;1.30;;;15.80;56.20;;;;;;4866273;29;20150;-78
2022/02/26 11:32:04;;;;;;;4.35;0.90;;;15.80;56.20;;;;;;4865972;29;20438;-78
2022/02/26 11:34:31;;;;;;;5.28;1.10;;;15.80;56.40;;;;;;4865451;29;20132;-79
2022/02/26 11:36:58;;;;;;;4.20;1.33;;;15.70;56.20;;;;;;4865570;29;20125;-77
2022/02/26 11:39:28;;;;;;;5.10;1.20;;;15.70;56.20;;;;;;4865214;29;20049;-78
2022/02/26 11:42:12;;;;;;;5.38;1.33;;;15.70;56.40;;;;;;4865251;29;20060;-78
2022/02/26 11:44:41;;;;;;;7.03;1.33;;;15.70;56.60;;;;;;4865685;29;20144;-78
2022/02/26 11:47:16;;;;;;;4.30;1.23;;;15.70;56.50;;;;;;4864193;29;20098;-77
2022/02/26 11:50:10;;;;;;;5.28;1.10;;;15.70;56.50;;;;;;4865440;29;20165;-78
2022/02/26 11:52:41;;;;;;;4.43;1.00;;;15.70;56.70;;;;;;4864500;29;20060;-78
2022/02/26 11:55:53;;;;;;;3.20;1.17;;;15.70;56.50;;;;;;4865220;29;20387;-77
2022/02/26 11:58:21;;;;;;;3.80;0.95;;;15.60;56.90;;;;;;4793702;29;20474;-78
2022/02/26 12:00:53;;;;;;;4.78;1.35;;;15.60;56.60;;;;;;4871669;29;20061;-77
2022/02/26 12:03:26;;;;;;;7.00;1.63;;;15.60;56.70;;;;;;4864674;29;20057;-79
2022/02/26 12:06:11;;;;;;;4.53;1.20;;;15.60;56.60;;;;;;4865110;29;20061;-77
2022/02/26 12:08:44;;;;;;;4.05;1.20;;;15.60;56.70;;;;;;4865402;29;20103;-78
2022/02/26 12:11:43;;;;;;;4.17;1.30;;;15.60;56.70;;;;;;4864288;29;20050;-77
2022/02/26 12:14:19;;;;;;;3.42;1.00;;;15.50;56.80;;;;;;4861741;29;20145;-78
2022/02/26 12:16:50;;;;;;;3.85;1.00;;;15.50;56.70;;;;;;4864224;29;20090;-77
2022/02/26 12:19:16;;;;;;;4.75;1.30;;;15.50;56.80;;;;;;4864901;29;20168;-78
2022/02/26 12:21:51;;;;;;;6.93;1.50;;;15.50;56.80;;;;;;4861840;29;20049;-75
2022/02/26 12:24:20;;;;;;;5.57;1.23;;;15.40;56.70;;;;;;4863918;29;20045;-78
2022/02/26 12:27:05;;;;;;;8.48;1.33;;;15.50;56.60;;;;;;4863754;29;20442;-77
2022/02/26 12:29:42;;;;;;;10.05;2.08;;;15.50;56.20;;;;;;4847643;29;20053;-72
2022/02/26 12:32:12;;;;;;;7.85;1.83;;;15.50;55.20;;;;;;4864235;29;20064;-77
2022/02/26 12:35:01;;;;;;;11.05;2.17;;;15.50;54.60;;;;;;4864554;29;20091;-77
2022/02/26 12:37:32;;;;;;;12.60;1.85;;;15.40;54.10;;;;;;4864529;29;20056;-76
2022/02/26 12:40:23;;;;;;;8.70;1.70;;;15.40;54.20;;;;;;4864307;29;20352;-77
2022/02/26 12:42:50;;;;;;;12.68;1.92;;;15.40;54.60;;;;;;4856607;29;20061;-77
2022/02/26 12:45:18;;;;;;;12.05;2.25;;;15.30;54.80;;;;;;4864597;29;20416;-78
2022/02/26 12:47:46;;;;;;;7.53;1.33;;;15.40;55.10;;;;;;4862965;29;20450;-78